createdAt,value
2018-07-26T00:00:31.636Z,54.90
2018-07-26T00:01:36.633Z,54.90
2018-07-26T00:02:41.582Z,54.90
2018-07-26T00:03:46.545Z,54.90
2018-07-26T00:04:51.726Z,55.00
2018-07-26T00:05:56.673Z,55.00
2018-07-26T00:07:01.596Z,55.00
2018-07-26T00:08:06.636Z,55.00
2018-07-26T00:09:11.590Z,54.90
2018-07-26T00:10:16.542Z,54.90
2018-07-26T00:11:21.582Z,55.00
2018-07-26T00:12:26.581Z,55.00
2018-07-26T00:13:31.519Z,55.00
2018-07-26T00:14:36.472Z,55.00
2018-07-26T00:15:41.205Z,55.00
2018-07-26T00:16:45.917Z,55.00
2018-07-26T00:17:51.059Z,55.00
2018-07-26T00:18:56.037Z,55.00
2018-07-26T00:20:01.156Z,55.00
2018-07-26T00:21:06.030Z,55.00
2018-07-26T00:22:10.955Z,55.00
2018-07-26T00:23:15.881Z,55.00
2018-07-26T00:24:20.845Z,55.00
2018-07-26T00:25:25.767Z,55.00
2018-07-26T00:26:30.938Z,55.00
2018-07-26T00:27:35.865Z,55.00
2018-07-26T00:28:40.971Z,55.00
2018-07-26T00:29:46.147Z,55.00
2018-07-26T00:30:51.106Z,55.00
2018-07-26T00:31:56.252Z,55.00
2018-07-26T00:33:00.999Z,55.00
2018-07-26T00:34:05.970Z,55.00
2018-07-26T00:35:10.748Z,55.00
2018-07-26T00:36:15.924Z,55.00
2018-07-26T00:37:21.004Z,55.10
2018-07-26T00:38:25.863Z,55.00
2018-07-26T00:39:30.998Z,55.10
2018-07-26T00:40:35.927Z,55.10
2018-07-26T00:41:41.060Z,55.10
2018-07-26T00:42:45.991Z,55.10
2018-07-26T00:43:51.104Z,55.10
2018-07-26T00:44:55.854Z,55.10
2018-07-26T00:46:00.819Z,55.10
2018-07-26T00:47:05.552Z,55.10
2018-07-26T00:48:10.725Z,55.10
2018-07-26T00:49:15.686Z,55.10
2018-07-26T00:50:20.799Z,55.10
2018-07-26T00:51:25.553Z,55.10
2018-07-26T00:52:30.495Z,55.10
2018-07-26T00:53:35.485Z,55.10
2018-07-26T00:54:40.689Z,55.10
2018-07-26T00:55:45.604Z,55.10
2018-07-26T00:56:50.575Z,55.10
2018-07-26T00:57:55.557Z,55.20
2018-07-26T00:59:00.343Z,55.10
2018-07-26T01:00:05.245Z,55.20
2018-07-26T01:01:09.988Z,55.10
2018-07-26T01:02:15.090Z,55.10
2018-07-26T01:03:20.049Z,55.10
2018-07-26T01:04:25.028Z,55.10
2018-07-26T01:05:29.778Z,55.20
2018-07-26T01:06:34.510Z,55.20
2018-07-26T01:07:39.425Z,55.20
2018-07-26T01:08:44.355Z,55.20
2018-07-26T01:09:49.375Z,55.10
2018-07-26T01:10:54.525Z,55.20
2018-07-26T01:11:59.295Z,55.20
2018-07-26T01:13:04.032Z,55.20
2018-07-26T01:14:08.995Z,55.20
2018-07-26T01:15:13.778Z,55.20
2018-07-26T01:16:18.842Z,55.20
2018-07-26T01:17:23.826Z,55.20
2018-07-26T01:18:28.854Z,55.20
2018-07-26T01:19:33.863Z,55.20
2018-07-26T01:20:38.872Z,55.20
2018-07-26T01:21:43.862Z,55.30
2018-07-26T01:22:48.836Z,55.20
2018-07-26T01:23:53.670Z,55.20
2018-07-26T01:24:58.413Z,55.20
2018-07-26T01:26:03.393Z,55.20
2018-07-26T01:27:08.459Z,55.30
2018-07-26T01:28:13.335Z,55.30
2018-07-26T01:29:18.128Z,55.30
2018-07-26T01:30:23.072Z,55.30
2018-07-26T01:31:28.066Z,55.30
2018-07-26T01:32:33.008Z,55.30
2018-07-26T01:33:38.097Z,55.30
2018-07-26T01:34:43.262Z,55.30
2018-07-26T01:35:48.249Z,55.30
2018-07-26T01:36:53.244Z,55.30
2018-07-26T01:37:58.179Z,55.30
2018-07-26T01:39:03.122Z,55.30
2018-07-26T01:40:08.277Z,55.70
2018-07-26T01:41:13.272Z,55.30
2018-07-26T01:42:18.004Z,55.30
2018-07-26T01:43:22.954Z,55.30
2018-07-26T01:44:28.021Z,55.30
2018-07-26T01:45:32.766Z,55.30
2018-07-26T01:46:37.737Z,55.40
2018-07-26T01:47:42.550Z,55.40
2018-07-26T01:48:47.619Z,55.40
2018-07-26T01:49:52.587Z,55.40
2018-07-26T01:50:57.360Z,55.40
2018-07-26T01:52:02.547Z,55.40
2018-07-26T01:53:07.517Z,55.40
2018-07-26T01:54:13.428Z,55.40
2018-07-26T01:55:18.557Z,55.40
2018-07-26T01:56:23.388Z,55.40
2018-07-26T01:57:28.343Z,55.40
2018-07-26T01:58:33.470Z,55.40
2018-07-26T01:59:38.648Z,55.40
2018-07-26T02:00:43.620Z,55.40
2018-07-26T02:01:48.701Z,55.40
2018-07-26T02:02:53.386Z,55.40
2018-07-26T02:03:58.137Z,55.40
2018-07-26T02:05:02.918Z,55.40
2018-07-26T02:06:08.200Z,55.50
2018-07-26T02:07:13.343Z,55.50
2018-07-26T02:08:18.108Z,55.40
2018-07-26T02:09:23.127Z,55.50
2018-07-26T02:10:28.400Z,55.50
2018-07-26T02:11:33.235Z,55.50
2018-07-26T02:12:38.389Z,55.50
2018-07-26T02:13:43.607Z,55.50
2018-07-26T02:14:48.383Z,55.50
2018-07-26T02:15:53.339Z,55.50
2018-07-26T02:16:58.535Z,55.50
2018-07-26T02:18:03.593Z,55.50
2018-07-26T02:19:08.378Z,55.60
2018-07-26T02:20:13.390Z,55.50
2018-07-26T02:21:18.546Z,55.50
2018-07-26T02:22:23.725Z,55.50
2018-07-26T02:23:28.859Z,55.50
2018-07-26T02:24:33.659Z,55.50
2018-07-26T02:25:38.698Z,55.50
2018-07-26T02:26:43.739Z,55.50
2018-07-26T02:27:48.549Z,55.60
2018-07-26T02:28:53.690Z,55.60
2018-07-26T02:29:58.865Z,55.60
2018-07-26T02:31:03.848Z,55.60
2018-07-26T02:32:08.586Z,55.60
2018-07-26T02:33:13.764Z,55.60
2018-07-26T02:34:18.934Z,55.60
2018-07-26T02:35:23.886Z,55.60
2018-07-26T02:36:29.055Z,55.60
2018-07-26T02:37:34.089Z,55.60
2018-07-26T02:38:39.252Z,55.60
2018-07-26T02:39:44.420Z,55.70
2018-07-26T02:40:49.623Z,55.70
2018-07-26T02:41:54.605Z,55.70
2018-07-26T02:42:59.407Z,55.60
2018-07-26T02:44:04.587Z,55.60
2018-07-26T02:45:09.484Z,55.70
2018-07-26T02:46:14.485Z,55.70
2018-07-26T02:47:19.643Z,55.70
2018-07-26T02:48:24.828Z,55.70
2018-07-26T02:49:29.738Z,55.70
2018-07-26T02:50:34.678Z,55.70
2018-07-26T02:51:39.652Z,55.70
2018-07-26T02:52:44.794Z,55.70
2018-07-26T02:53:50.018Z,55.80
2018-07-26T02:54:55.181Z,55.70
2018-07-26T02:56:00.857Z,55.70
2018-07-26T02:57:05.570Z,55.70
2018-07-26T02:58:10.537Z,55.70
2018-07-26T02:59:15.648Z,55.80
2018-07-26T03:00:20.617Z,55.80
2018-07-26T03:01:25.565Z,55.80
2018-07-26T03:02:30.503Z,55.80
2018-07-26T03:03:35.491Z,55.80
2018-07-26T03:04:40.642Z,55.80
2018-07-26T03:05:45.415Z,55.80
2018-07-26T03:06:50.132Z,55.90
2018-07-26T03:07:55.156Z,55.80
2018-07-26T03:08:59.967Z,55.80
2018-07-26T03:10:04.811Z,55.80
2018-07-26T03:11:09.841Z,55.80
2018-07-26T03:12:14.804Z,55.90
2018-07-26T03:13:19.531Z,55.90
2018-07-26T03:14:24.486Z,55.90
2018-07-26T03:15:29.427Z,55.80
2018-07-26T03:16:34.346Z,55.80
2018-07-26T03:17:39.498Z,55.90
2018-07-26T03:18:44.292Z,55.90
2018-07-26T03:19:49.284Z,55.90
2018-07-26T03:20:54.505Z,55.90
2018-07-26T03:21:59.573Z,55.90
2018-07-26T03:23:04.778Z,55.90
2018-07-26T03:24:09.791Z,56.00
2018-07-26T03:25:14.554Z,55.90
2018-07-26T03:26:19.344Z,55.90
2018-07-26T03:27:24.519Z,56.00
2018-07-26T03:28:29.302Z,55.90
2018-07-26T03:29:34.318Z,56.00
2018-07-26T03:30:39.295Z,56.00
2018-07-26T03:31:44.247Z,56.00
2018-07-26T03:32:49.066Z,56.00
2018-07-26T03:33:54.048Z,56.00
2018-07-26T03:34:58.998Z,56.00
2018-07-26T03:36:04.214Z,56.10
2018-07-26T03:37:09.354Z,56.00
2018-07-26T03:38:14.298Z,56.00
2018-07-26T03:39:19.185Z,56.00
2018-07-26T03:40:23.943Z,56.00
2018-07-26T03:41:28.940Z,56.10
2018-07-26T03:42:33.904Z,56.10
2018-07-26T03:43:38.926Z,56.10
2018-07-26T03:44:43.965Z,56.10
2018-07-26T03:45:49.496Z,56.10
2018-07-26T03:46:54.691Z,56.10
2018-07-26T03:47:59.522Z,56.10
2018-07-26T03:49:04.536Z,56.10
2018-07-26T03:50:09.584Z,56.10
2018-07-26T03:51:14.876Z,56.10
2018-07-26T03:52:19.689Z,56.10
2018-07-26T03:53:24.733Z,56.10
2018-07-26T03:54:29.724Z,56.10
2018-07-26T03:55:34.697Z,56.10
2018-07-26T03:56:39.692Z,56.10
2018-07-26T03:57:44.939Z,56.10
2018-07-26T03:58:49.941Z,56.70
2018-07-26T03:59:55.134Z,56.10
2018-07-26T04:01:00.185Z,56.10
2018-07-26T04:02:05.015Z,56.10
2018-07-26T04:03:10.322Z,56.10
2018-07-26T04:04:15.085Z,56.10
2018-07-26T04:05:19.846Z,56.10
2018-07-26T04:06:24.672Z,56.10
2018-07-26T04:07:29.667Z,56.10
2018-07-26T04:08:34.460Z,56.10
2018-07-26T04:09:39.418Z,56.10
2018-07-26T04:10:44.320Z,56.20
2018-07-26T04:11:49.230Z,56.20
2018-07-26T04:12:53.969Z,56.20
2018-07-26T04:13:58.989Z,56.20
2018-07-26T04:15:03.842Z,56.20
2018-07-26T04:16:08.810Z,56.20
2018-07-26T04:17:13.714Z,56.20
2018-07-26T04:18:18.633Z,56.20
2018-07-26T04:19:23.514Z,56.20
2018-07-26T04:20:28.496Z,56.20
2018-07-26T04:21:33.552Z,56.20
2018-07-26T04:22:38.474Z,56.20
2018-07-26T04:23:43.192Z,56.20
2018-07-26T04:24:48.336Z,56.20
2018-07-26T04:25:53.284Z,56.20
2018-07-26T04:26:58.208Z,56.20
2018-07-26T04:28:03.264Z,56.20
2018-07-26T04:29:08.437Z,56.20
2018-07-26T04:30:13.845Z,56.20
2018-07-26T04:31:19.050Z,56.30
2018-07-26T04:32:23.826Z,56.20
2018-07-26T04:33:28.645Z,56.20
2018-07-26T04:34:33.798Z,56.20
2018-07-26T04:35:38.627Z,56.20
2018-07-26T04:36:43.659Z,56.30
2018-07-26T04:37:48.609Z,56.20
2018-07-26T04:38:53.640Z,56.30
2018-07-26T04:39:58.579Z,56.30
2018-07-26T04:41:03.321Z,56.20
2018-07-26T04:42:08.350Z,56.30
2018-07-26T04:43:13.154Z,56.30
2018-07-26T04:44:18.095Z,56.30
2018-07-26T04:45:23.111Z,56.30
2018-07-26T04:46:28.271Z,56.30
2018-07-26T04:47:33.442Z,56.30
2018-07-26T04:48:38.413Z,56.30
2018-07-26T04:49:43.525Z,56.30
2018-07-26T04:50:48.664Z,56.30
2018-07-26T04:51:53.795Z,56.30
2018-07-26T04:52:58.765Z,56.30
2018-07-26T04:54:03.563Z,56.30
2018-07-26T04:55:08.346Z,56.40
2018-07-26T04:56:13.132Z,56.30
2018-07-26T04:57:18.136Z,56.30
2018-07-26T04:58:22.948Z,56.30
2018-07-26T04:59:27.694Z,56.30
2018-07-26T05:00:32.482Z,56.30
2018-07-26T05:01:37.517Z,56.30
2018-07-26T05:02:42.552Z,56.30
2018-07-26T05:03:47.640Z,56.30
2018-07-26T05:04:52.474Z,56.30
2018-07-26T05:05:57.575Z,56.30
2018-07-26T05:07:02.627Z,56.30
2018-07-26T05:08:07.616Z,56.30
2018-07-26T05:09:12.573Z,56.40
2018-07-26T05:10:17.520Z,56.60
2018-07-26T05:11:22.372Z,56.90
2018-07-26T05:12:27.504Z,57.20
2018-07-26T05:13:32.608Z,57.40
2018-07-26T05:14:37.828Z,57.60
2018-07-26T05:15:42.921Z,57.70
2018-07-26T05:16:48.061Z,57.80
2018-07-26T05:17:53.234Z,57.90
2018-07-26T05:18:58.281Z,58.00
2018-07-26T05:20:03.275Z,58.10
2018-07-26T05:21:08.192Z,58.10
2018-07-26T05:22:13.160Z,58.10
2018-07-26T05:23:18.097Z,58.00
2018-07-26T05:24:22.860Z,58.10
2018-07-26T05:25:27.749Z,58.00
2018-07-26T05:26:32.484Z,58.00
2018-07-26T05:27:37.446Z,58.10
2018-07-26T05:28:42.568Z,58.00
2018-07-26T05:29:47.706Z,58.00
2018-07-26T05:30:52.805Z,58.00
2018-07-26T05:31:57.579Z,58.60
2018-07-26T05:33:02.570Z,57.90
2018-07-26T05:34:07.549Z,58.00
2018-07-26T05:35:12.757Z,57.90
2018-07-26T05:36:17.877Z,57.90
2018-07-26T05:37:23.038Z,57.90
2018-07-26T05:38:28.016Z,58.50
2018-07-26T05:39:33.128Z,57.80
2018-07-26T05:40:38.226Z,57.70
2018-07-26T05:41:43.154Z,57.70
2018-07-26T05:42:48.187Z,57.70
2018-07-26T05:43:53.181Z,57.80
2018-07-26T05:44:58.182Z,58.40
2018-07-26T05:46:03.443Z,57.70
2018-07-26T05:47:08.807Z,57.70
2018-07-26T05:48:13.956Z,57.70
2018-07-26T05:49:19.060Z,57.70
2018-07-26T05:50:24.401Z,57.60
2018-07-26T05:51:29.507Z,57.60
2018-07-26T05:52:36.384Z,57.60
2018-07-26T05:53:41.298Z,57.60
2018-07-26T05:54:46.240Z,57.60
2018-07-26T05:55:51.376Z,57.60
2018-07-26T05:56:56.517Z,57.60
2018-07-26T05:58:02.093Z,57.60
2018-07-26T05:59:07.021Z,57.60
2018-07-26T06:00:12.001Z,57.70
2018-07-26T06:01:16.881Z,57.60
2018-07-26T06:02:22.006Z,57.60
2018-07-26T06:03:27.144Z,57.60
2018-07-26T06:04:32.216Z,57.50
2018-07-26T06:05:37.153Z,57.50
2018-07-26T06:06:42.129Z,57.40
2018-07-26T06:07:47.131Z,57.40
2018-07-26T06:08:52.323Z,57.40
2018-07-26T06:09:57.032Z,57.30
2018-07-26T06:11:02.327Z,57.40
2018-07-26T06:12:07.285Z,57.30
2018-07-26T06:13:12.188Z,57.30
2018-07-26T06:14:17.131Z,57.30
2018-07-26T06:15:22.266Z,57.40
2018-07-26T06:16:27.031Z,57.30
2018-07-26T06:17:31.835Z,57.40
2018-07-26T06:18:36.813Z,57.30
2018-07-26T06:19:41.830Z,57.30
2018-07-26T06:20:46.991Z,57.30
2018-07-26T06:21:52.123Z,57.30
2018-07-26T06:22:57.134Z,57.30
2018-07-26T06:24:02.087Z,57.30
2018-07-26T06:25:07.228Z,57.30
2018-07-26T06:26:12.580Z,57.20
2018-07-26T06:27:17.891Z,57.20
2018-07-26T06:28:22.910Z,57.20
2018-07-26T06:29:27.753Z,57.20
2018-07-26T06:30:32.886Z,57.20
2018-07-26T06:31:37.775Z,57.20
2018-07-26T06:32:42.519Z,57.10
2018-07-26T06:33:47.404Z,57.10
2018-07-26T06:34:52.519Z,57.10
2018-07-26T06:35:57.328Z,57.10
2018-07-26T06:37:02.506Z,57.10
2018-07-26T06:38:07.533Z,57.10
2018-07-26T06:39:12.490Z,57.10
2018-07-26T06:40:17.548Z,57.00
2018-07-26T06:41:22.464Z,57.00
2018-07-26T06:42:27.459Z,57.00
2018-07-26T06:43:32.435Z,57.00
2018-07-26T06:44:37.560Z,57.00
2018-07-26T06:45:42.522Z,57.00
2018-07-26T06:46:47.680Z,57.00
2018-07-26T06:47:52.382Z,57.00
2018-07-26T06:48:57.568Z,56.90
2018-07-26T06:50:02.698Z,57.00
2018-07-26T06:51:07.691Z,56.90
2018-07-26T06:52:12.933Z,56.90
2018-07-26T06:53:18.025Z,56.90
2018-07-26T06:54:23.024Z,56.80
2018-07-26T06:55:28.019Z,56.80
2018-07-26T06:56:33.005Z,56.80
2018-07-26T06:57:37.972Z,56.80
2018-07-26T06:58:43.088Z,56.80
2018-07-26T06:59:48.132Z,56.80
2018-07-26T07:00:53.124Z,56.80
2018-07-26T07:01:57.985Z,56.80
2018-07-26T07:03:03.921Z,56.80
2018-07-26T07:04:08.901Z,56.70
2018-07-26T07:05:14.297Z,56.70
2018-07-26T07:06:19.153Z,56.70
2018-07-26T07:07:24.270Z,56.70
2018-07-26T07:08:29.354Z,56.70
2018-07-26T07:09:34.613Z,56.70
2018-07-26T07:10:43.696Z,56.70
2018-07-26T07:11:48.792Z,56.70
2018-07-26T07:12:53.541Z,56.70
2018-07-26T07:13:58.308Z,56.70
2018-07-26T07:15:03.719Z,56.60
2018-07-26T07:16:08.849Z,56.60
2018-07-26T07:17:13.742Z,56.70
2018-07-26T07:18:18.688Z,56.60
2018-07-26T07:19:23.648Z,56.70
2018-07-26T07:20:28.701Z,56.70
2018-07-26T07:21:33.668Z,56.60
2018-07-26T07:22:38.435Z,56.60
2018-07-26T07:23:43.694Z,56.60
2018-07-26T07:24:48.927Z,56.60
2018-07-26T07:25:53.904Z,56.70
2018-07-26T07:26:58.871Z,56.60
2018-07-26T07:28:03.938Z,56.60
2018-07-26T07:29:09.085Z,56.70
2018-07-26T07:30:14.167Z,56.60
2018-07-26T07:31:19.287Z,56.60
2018-07-26T07:32:23.996Z,56.60
2018-07-26T07:33:28.964Z,56.60
2018-07-26T07:34:34.064Z,56.60
2018-07-26T07:35:39.491Z,56.60
2018-07-26T07:36:44.413Z,56.60
2018-07-26T07:37:49.196Z,56.60
2018-07-26T07:38:54.144Z,56.60
2018-07-26T07:39:59.252Z,56.60
2018-07-26T07:41:04.249Z,56.60
2018-07-26T07:42:09.439Z,56.60
2018-07-26T07:43:14.377Z,56.60
2018-07-26T07:44:19.498Z,56.60
2018-07-26T07:45:24.424Z,56.60
2018-07-26T07:46:29.200Z,56.60
2018-07-26T07:47:34.386Z,56.60
2018-07-26T07:48:41.008Z,56.50
2018-07-26T07:49:45.994Z,56.60
2018-07-26T07:50:50.960Z,56.60
2018-07-26T07:51:55.707Z,56.60
2018-07-26T07:53:00.564Z,56.60
2018-07-26T07:54:05.462Z,56.60
2018-07-26T07:55:10.666Z,56.60
2018-07-26T07:56:15.579Z,56.60
2018-07-26T07:57:20.760Z,56.60
2018-07-26T07:58:26.069Z,56.60
2018-07-26T07:59:31.237Z,56.60
2018-07-26T08:00:36.056Z,56.60
2018-07-26T08:01:41.215Z,56.60
2018-07-26T08:02:46.390Z,56.60
2018-07-26T08:03:51.566Z,56.50
2018-07-26T08:04:56.476Z,56.50
2018-07-26T08:06:01.444Z,56.60
2018-07-26T08:07:06.195Z,56.50
2018-07-26T08:08:11.089Z,56.50
2018-07-26T08:09:16.240Z,56.50
2018-07-26T08:10:21.446Z,56.50
2018-07-26T08:11:26.349Z,56.50
2018-07-26T08:12:31.577Z,56.50
2018-07-26T08:13:36.202Z,56.40
2018-07-26T08:14:41.092Z,56.50
2018-07-26T08:15:45.965Z,56.50
2018-07-26T08:16:50.646Z,56.50
2018-07-26T08:17:55.387Z,57.20
2018-07-26T08:19:00.469Z,56.50
2018-07-26T08:20:05.563Z,56.50
2018-07-26T08:21:10.309Z,56.50
2018-07-26T08:22:15.399Z,56.50
2018-07-26T08:23:20.619Z,56.50
2018-07-26T08:24:25.980Z,56.40
2018-07-26T08:25:31.504Z,56.40
2018-07-26T08:26:36.761Z,56.40
2018-07-26T08:27:41.599Z,56.40
2018-07-26T08:28:48.380Z,56.40
2018-07-26T08:29:53.822Z,56.40
2018-07-26T08:30:58.992Z,56.40
2018-07-26T08:32:04.392Z,56.40
2018-07-26T08:33:10.782Z,56.40
2018-07-26T08:34:16.060Z,56.40
2018-07-26T08:35:23.229Z,56.30
2018-07-26T08:36:28.396Z,56.30
2018-07-26T08:37:33.962Z,56.30
2018-07-26T08:38:38.731Z,56.30
2018-07-26T08:39:43.514Z,56.30
2018-07-26T08:40:49.166Z,56.30
2018-07-26T08:41:55.082Z,56.30
2018-07-26T08:42:59.867Z,56.30
2018-07-26T08:44:05.227Z,56.30
2018-07-26T08:45:11.203Z,56.30
2018-07-26T08:46:16.185Z,56.30
2018-07-26T08:47:21.268Z,56.30
2018-07-26T08:48:26.316Z,56.30
2018-07-26T08:49:31.389Z,56.30
2018-07-26T08:50:36.522Z,56.30
2018-07-26T08:51:41.522Z,56.30
2018-07-26T08:52:46.896Z,56.20
2018-07-26T08:53:52.309Z,56.20
2018-07-26T08:54:57.064Z,56.30
2018-07-26T08:56:02.314Z,56.20
2018-07-26T08:57:07.256Z,56.30
2018-07-26T08:58:12.432Z,56.30
2018-07-26T08:59:17.410Z,56.30
2018-07-26T09:00:23.253Z,56.20
2018-07-26T09:01:28.818Z,56.20
2018-07-26T09:02:33.941Z,56.20
2018-07-26T09:03:39.405Z,56.30
2018-07-26T09:04:44.398Z,56.20
2018-07-26T09:05:49.370Z,56.20
2018-07-26T09:06:54.279Z,56.20
2018-07-26T09:07:59.120Z,56.20
2018-07-26T09:09:04.068Z,56.30
2018-07-26T09:10:09.107Z,56.30
2018-07-26T09:11:14.573Z,56.30
2018-07-26T09:12:20.460Z,56.20
2018-07-26T09:13:25.863Z,56.20
2018-07-26T09:14:32.934Z,56.20
2018-07-26T09:15:38.246Z,56.20
2018-07-26T09:16:43.153Z,56.20
2018-07-26T09:17:48.171Z,56.20
2018-07-26T09:18:53.488Z,56.20
2018-07-26T09:19:58.451Z,56.20
2018-07-26T09:21:03.860Z,56.20
2018-07-26T09:22:08.838Z,56.20
2018-07-26T09:23:13.655Z,56.20
2018-07-26T09:24:19.065Z,56.20
2018-07-26T09:25:24.356Z,56.20
2018-07-26T09:26:29.100Z,56.20
2018-07-26T09:27:34.147Z,56.20
2018-07-26T09:28:39.015Z,56.20
2018-07-26T09:29:43.802Z,56.20
2018-07-26T09:30:48.707Z,56.30
2018-07-26T09:31:56.599Z,56.20
2018-07-26T09:33:01.590Z,56.30
2018-07-26T09:34:06.607Z,56.20
2018-07-26T09:35:12.520Z,56.30
2018-07-26T09:36:17.401Z,56.30
2018-07-26T09:37:22.672Z,56.30
2018-07-26T09:38:27.866Z,56.30
2018-07-26T09:39:32.586Z,56.30
2018-07-26T09:40:39.977Z,56.30
2018-07-26T09:41:44.956Z,56.30
2018-07-26T09:42:49.725Z,56.30
2018-07-26T09:43:55.232Z,56.30
2018-07-26T09:45:00.849Z,56.30
2018-07-26T09:46:06.892Z,56.30
2018-07-26T09:47:12.143Z,56.30
2018-07-26T09:48:17.459Z,56.30
2018-07-26T09:49:22.374Z,56.30
2018-07-26T09:50:27.288Z,56.30
2018-07-26T09:51:32.272Z,56.40
2018-07-26T09:52:37.200Z,56.40
2018-07-26T09:53:42.271Z,56.40
2018-07-26T09:54:47.250Z,56.40
2018-07-26T09:55:52.614Z,56.40
2018-07-26T09:56:57.468Z,56.40
2018-07-26T09:58:02.487Z,56.40
2018-07-26T09:59:07.385Z,56.40
2018-07-26T10:00:12.382Z,56.40
2018-07-26T10:01:17.497Z,56.40
2018-07-26T10:02:22.236Z,56.40
2018-07-26T10:03:26.987Z,56.30
2018-07-26T10:04:31.718Z,56.30
2018-07-26T10:05:36.828Z,56.40
2018-07-26T10:06:41.988Z,56.30
2018-07-26T10:07:46.764Z,56.30
2018-07-26T10:08:51.893Z,56.30
2018-07-26T10:09:57.084Z,56.30
2018-07-26T10:11:02.024Z,56.30
2018-07-26T10:12:07.152Z,56.30
2018-07-26T10:13:11.870Z,56.30
2018-07-26T10:14:16.861Z,56.30
2018-07-26T10:15:21.572Z,56.30
2018-07-26T10:16:26.428Z,56.30
2018-07-26T10:17:31.393Z,56.30
2018-07-26T10:18:36.524Z,56.30
2018-07-26T10:19:41.642Z,56.30
2018-07-26T10:20:46.500Z,56.30
2018-07-26T10:21:51.304Z,56.30
2018-07-26T10:22:56.531Z,56.30
2018-07-26T10:24:01.745Z,56.30
2018-07-26T10:25:06.488Z,56.30
2018-07-26T10:26:11.459Z,56.30
2018-07-26T10:27:16.407Z,56.30
2018-07-26T10:28:21.378Z,56.40
2018-07-26T10:29:26.208Z,56.40
2018-07-26T10:30:31.339Z,56.40
2018-07-26T10:31:36.498Z,56.40
2018-07-26T10:32:41.242Z,56.40
2018-07-26T10:33:45.932Z,57.10
2018-07-26T10:34:50.676Z,56.40
2018-07-26T10:35:55.494Z,56.40
2018-07-26T10:37:00.460Z,56.30
2018-07-26T10:38:05.594Z,56.30
2018-07-26T10:39:12.386Z,56.30
2018-07-26T10:40:17.694Z,56.30
2018-07-26T10:41:22.816Z,56.30
2018-07-26T10:42:27.638Z,56.40
2018-07-26T10:43:32.426Z,56.30
2018-07-26T10:44:37.415Z,56.30
2018-07-26T10:45:42.379Z,56.30
2018-07-26T10:46:47.136Z,56.30
2018-07-26T10:47:51.949Z,56.30
2018-07-26T10:48:56.848Z,56.30
2018-07-26T10:50:01.837Z,56.40
2018-07-26T10:51:06.492Z,56.30
2018-07-26T10:52:11.329Z,56.30
2018-07-26T10:53:16.939Z,56.30
2018-07-26T10:54:22.294Z,56.40
2018-07-26T10:55:27.377Z,56.30
2018-07-26T10:56:32.235Z,56.30
2018-07-26T10:57:37.344Z,56.30
2018-07-26T10:58:42.114Z,56.30
2018-07-26T10:59:47.324Z,56.40
2018-07-26T11:00:52.079Z,57.00
2018-07-26T11:01:57.265Z,56.30
2018-07-26T11:03:02.113Z,56.30
2018-07-26T11:04:06.854Z,56.30
2018-07-26T11:05:11.824Z,56.30
2018-07-26T11:06:16.878Z,56.30
2018-07-26T11:07:21.623Z,56.20
2018-07-26T11:08:26.381Z,56.20
2018-07-26T11:09:31.546Z,56.20
2018-07-26T11:10:36.431Z,56.30
2018-07-26T11:11:41.376Z,56.20
2018-07-26T11:12:46.279Z,56.90
2018-07-26T11:13:51.039Z,56.20
2018-07-26T11:14:56.058Z,56.20
2018-07-26T11:16:01.012Z,56.20
2018-07-26T11:17:05.949Z,56.10
2018-07-26T11:18:10.963Z,56.10
2018-07-26T11:19:15.956Z,56.10
2018-07-26T11:20:21.319Z,56.10
2018-07-26T11:21:26.704Z,56.10
2018-07-26T11:22:31.658Z,56.10
2018-07-26T11:23:36.692Z,56.10
2018-07-26T11:24:41.811Z,56.10
2018-07-26T11:25:46.659Z,56.10
2018-07-26T11:26:51.715Z,56.10
2018-07-26T11:27:56.461Z,56.10
2018-07-26T11:29:01.922Z,56.20
2018-07-26T11:30:07.462Z,56.10
2018-07-26T11:31:12.475Z,56.20
2018-07-26T11:32:17.564Z,56.20
2018-07-26T11:33:22.522Z,56.20
2018-07-26T11:34:27.787Z,56.20
2018-07-26T11:35:32.573Z,56.20
2018-07-26T11:36:37.387Z,56.20
2018-07-26T11:37:42.468Z,56.10
2018-07-26T11:38:47.821Z,56.10
2018-07-26T11:39:52.802Z,56.10
2018-07-26T11:40:57.759Z,56.10
2018-07-26T11:42:02.726Z,56.10
2018-07-26T11:43:07.635Z,56.10
2018-07-26T11:44:12.452Z,56.10
2018-07-26T11:45:17.389Z,56.10
2018-07-26T11:46:22.520Z,56.10
2018-07-26T11:47:27.437Z,56.00
2018-07-26T11:48:32.571Z,56.10
2018-07-26T11:49:37.741Z,56.20
2018-07-26T11:50:42.549Z,56.30
2018-07-26T11:51:47.449Z,56.40
2018-07-26T11:52:52.558Z,56.40
2018-07-26T11:53:57.324Z,56.30
2018-07-26T11:55:02.369Z,56.20
2018-07-26T11:56:07.459Z,56.20
2018-07-26T11:57:12.198Z,56.20
2018-07-26T11:58:17.330Z,56.10
2018-07-26T11:59:22.334Z,56.10
2018-07-26T12:00:27.542Z,56.10
2018-07-26T12:01:32.720Z,56.10
2018-07-26T12:02:37.691Z,56.00
2018-07-26T12:03:42.637Z,56.00
2018-07-26T12:04:47.608Z,56.00
2018-07-26T12:05:52.755Z,56.00
2018-07-26T12:06:57.672Z,56.00
2018-07-26T12:08:02.816Z,56.00
2018-07-26T12:09:07.557Z,56.00
2018-07-26T12:10:12.319Z,56.00
2018-07-26T12:11:17.052Z,56.00
2018-07-26T12:12:22.680Z,56.00
2018-07-26T12:13:27.772Z,56.00
2018-07-26T12:14:32.699Z,56.00
2018-07-26T12:15:37.531Z,56.00
2018-07-26T12:16:42.617Z,56.00
2018-07-26T12:17:47.460Z,56.00
2018-07-26T12:18:52.197Z,56.00
2018-07-26T12:19:56.976Z,56.00
2018-07-26T12:21:06.201Z,56.00
2018-07-26T12:22:13.134Z,56.00
2018-07-26T12:23:18.121Z,56.00
2018-07-26T12:24:23.157Z,56.00
2018-07-26T12:25:29.138Z,56.00
2018-07-26T12:26:34.269Z,56.00
2018-07-26T12:27:39.182Z,56.00
2018-07-26T12:28:44.010Z,56.00
2018-07-26T12:29:49.073Z,56.00
2018-07-26T12:30:54.076Z,56.00
2018-07-26T12:31:59.226Z,56.10
2018-07-26T12:33:04.213Z,56.70
2018-07-26T12:34:09.218Z,56.10
2018-07-26T12:35:14.317Z,56.10
2018-07-26T12:36:19.224Z,56.10
2018-07-26T12:37:24.325Z,56.10
2018-07-26T12:38:29.207Z,56.00
2018-07-26T12:39:34.114Z,56.00
2018-07-26T12:40:39.180Z,56.00
2018-07-26T12:41:44.259Z,56.00
2018-07-26T12:42:49.195Z,56.00
2018-07-26T12:43:53.907Z,56.00
2018-07-26T12:44:59.024Z,56.00
2018-07-26T12:46:03.971Z,56.00
2018-07-26T12:47:08.906Z,55.90
2018-07-26T12:48:13.903Z,56.00
2018-07-26T12:49:19.353Z,56.00
2018-07-26T12:50:24.118Z,55.90
2018-07-26T12:51:29.051Z,56.00
2018-07-26T12:52:34.175Z,56.00
2018-07-26T12:53:39.320Z,55.90
2018-07-26T12:54:44.341Z,55.90
2018-07-26T12:55:49.266Z,56.00
2018-07-26T12:56:54.146Z,56.10
2018-07-26T12:57:58.895Z,56.00
2018-07-26T12:59:03.855Z,56.00
2018-07-26T13:00:08.571Z,56.00
2018-07-26T13:01:13.702Z,56.00
2018-07-26T13:02:18.633Z,56.00
2018-07-26T13:03:23.755Z,56.00
2018-07-26T13:04:28.758Z,56.00
2018-07-26T13:05:33.476Z,56.00
2018-07-26T13:06:38.621Z,56.00
2018-07-26T13:07:43.587Z,56.00
2018-07-26T13:08:48.519Z,56.00
2018-07-26T13:09:53.310Z,56.10
2018-07-26T13:10:58.450Z,56.10
2018-07-26T13:12:03.654Z,56.10
2018-07-26T13:13:08.680Z,56.00
2018-07-26T13:14:13.423Z,56.00
2018-07-26T13:15:18.197Z,56.10
2018-07-26T13:16:22.945Z,56.10
2018-07-26T13:17:27.721Z,56.00
2018-07-26T13:18:32.862Z,56.10
2018-07-26T13:19:37.940Z,56.10
2018-07-26T13:20:42.861Z,56.10
2018-07-26T13:21:47.817Z,56.10
2018-07-26T13:22:52.805Z,56.10
2018-07-26T13:23:58.002Z,56.10
2018-07-26T13:25:03.264Z,56.10
2018-07-26T13:26:08.295Z,56.10
2018-07-26T13:27:13.206Z,56.20
2018-07-26T13:28:18.239Z,56.10
2018-07-26T13:29:23.505Z,56.10
2018-07-26T13:30:28.326Z,56.10
2018-07-26T13:31:33.319Z,56.10
2018-07-26T13:32:38.351Z,56.10
2018-07-26T13:33:43.281Z,56.10
2018-07-26T13:34:48.637Z,56.10
2018-07-26T13:35:53.568Z,56.10
2018-07-26T13:36:58.565Z,56.10
2018-07-26T13:38:03.506Z,56.10
2018-07-26T13:39:08.483Z,56.10
2018-07-26T13:40:13.612Z,56.80
2018-07-26T13:41:18.629Z,56.10
2018-07-26T13:42:23.557Z,56.20
2018-07-26T13:43:28.725Z,56.20
2018-07-26T13:44:33.871Z,56.10
2018-07-26T13:45:38.597Z,56.10
2018-07-26T13:46:43.519Z,56.10
2018-07-26T13:47:48.441Z,56.20
2018-07-26T13:48:53.148Z,56.10
2018-07-26T13:49:58.101Z,56.10
2018-07-26T13:51:02.852Z,56.10
2018-07-26T13:52:08.115Z,56.10
2018-07-26T13:53:12.910Z,56.10
2018-07-26T13:54:17.936Z,56.10
2018-07-26T13:55:22.755Z,56.10
2018-07-26T13:56:27.966Z,56.10
2018-07-26T13:57:32.947Z,56.10